sensor_id;sensor_type;location;lat;lon;timestamp;P1;durP1;ratioP1;P2;durP2;ratioP2
16792;SDS011;8513;42.662;23.350;2024-01-27T00:01:38;6.37;;;2.73;;
16792;SDS011;8513;42.662;23.350;2024-01-27T00:04:03;4.97;;;2.07;;
16792;SDS011;8513;42.662;23.350;2024-01-27T00:06:29;8.20;;;2.47;;
16792;SDS011;8513;42.662;23.350;2024-01-27T00:08:54;6.43;;;2.47;;
16792;SDS011;8513;42.662;23.350;2024-01-27T00:11:20;3.13;;;2.20;;
16792;SDS011;8513;42.662;23.350;2024-01-27T00:13:45;5.37;;;2.30;;
16792;SDS011;8513;42.662;23.350;2024-01-27T00:16:11;5.17;;;2.40;;
16792;SDS011;8513;42.662;23.350;2024-01-27T00:18:37;3.43;;;2.00;;
16792;SDS011;8513;42.662;23.350;2024-01-27T00:21:03;7.57;;;2.40;;
16792;SDS011;8513;42.662;23.350;2024-01-27T00:23:31;8.77;;;2.87;;
16792;SDS011;8513;42.662;23.350;2024-01-27T00:25:57;6.37;;;2.43;;
16792;SDS011;8513;42.662;23.350;2024-01-27T00:28:23;3.27;;;1.90;;
16792;SDS011;8513;42.662;23.350;2024-01-27T00:30:49;6.37;;;2.50;;
16792;SDS011;8513;42.662;23.350;2024-01-27T00:33:14;6.80;;;2.40;;
16792;SDS011;8513;42.662;23.350;2024-01-27T00:35:40;5.20;;;2.20;;
16792;SDS011;8513;42.662;23.350;2024-01-27T00:38:05;4.60;;;2.00;;
16792;SDS011;8513;42.662;23.350;2024-01-27T00:40:30;4.50;;;2.53;;
16792;SDS011;8513;42.662;23.350;2024-01-27T00:42:56;6.53;;;2.40;;
16792;SDS011;8513;42.662;23.350;2024-01-27T00:45:21;5.47;;;2.30;;
16792;SDS011;8513;42.662;23.350;2024-01-27T00:47:52;4.80;;;2.40;;
16792;SDS011;8513;42.662;23.350;2024-01-27T00:50:18;3.90;;;2.20;;
16792;SDS011;8513;42.662;23.350;2024-01-27T00:52:43;3.70;;;2.33;;
16792;SDS011;8513;42.662;23.350;2024-01-27T00:55:08;4.53;;;2.40;;
16792;SDS011;8513;42.662;23.350;2024-01-27T00:57:37;6.90;;;2.40;;
16792;SDS011;8513;42.662;23.350;2024-01-27T01:00:06;5.63;;;2.43;;
16792;SDS011;8513;42.662;23.350;2024-01-27T01:02:32;5.93;;;2.20;;
16792;SDS011;8513;42.662;23.350;2024-01-27T01:04:57;5.43;;;2.57;;
16792;SDS011;8513;42.662;23.350;2024-01-27T01:07:23;4.50;;;2.00;;
16792;SDS011;8513;42.662;23.350;2024-01-27T01:09:48;4.27;;;2.00;;
16792;SDS011;8513;42.662;23.350;2024-01-27T01:12:14;2.97;;;2.00;;
16792;SDS011;8513;42.662;23.350;2024-01-27T01:14:40;6.53;;;2.73;;
16792;SDS011;8513;42.662;23.350;2024-01-27T01:17:05;5.67;;;2.20;;
16792;SDS011;8513;42.662;23.350;2024-01-27T01:19:31;4.43;;;2.30;;
16792;SDS011;8513;42.662;23.350;2024-01-27T01:21:56;6.43;;;2.57;;
16792;SDS011;8513;42.662;23.350;2024-01-27T01:24:22;6.47;;;2.57;;
16792;SDS011;8513;42.662;23.350;2024-01-27T01:26:47;5.70;;;2.27;;
16792;SDS011;8513;42.662;23.350;2024-01-27T01:29:13;5.10;;;2.60;;
16792;SDS011;8513;42.662;23.350;2024-01-27T01:31:41;8.63;;;2.87;;
16792;SDS011;8513;42.662;23.350;2024-01-27T01:34:07;5.87;;;2.50;;
16792;SDS011;8513;42.662;23.350;2024-01-27T01:36:33;6.17;;;2.40;;
16792;SDS011;8513;42.662;23.350;2024-01-27T01:38:58;8.20;;;2.50;;
16792;SDS011;8513;42.662;23.350;2024-01-27T01:41:24;4.70;;;2.33;;
16792;SDS011;8513;42.662;23.350;2024-01-27T01:43:49;8.47;;;2.60;;
16792;SDS011;8513;42.662;23.350;2024-01-27T01:46:15;6.23;;;2.57;;
16792;SDS011;8513;42.662;23.350;2024-01-27T01:48:40;5.07;;;2.30;;
16792;SDS011;8513;42.662;23.350;2024-01-27T01:51:06;7.53;;;2.40;;
16792;SDS011;8513;42.662;23.350;2024-01-27T01:53:31;4.77;;;2.23;;
16792;SDS011;8513;42.662;23.350;2024-01-27T01:55:57;6.27;;;2.33;;
16792;SDS011;8513;42.662;23.350;2024-01-27T01:58:23;7.23;;;2.63;;
16792;SDS011;8513;42.662;23.350;2024-01-27T02:00:48;2.87;;;2.20;;
16792;SDS011;8513;42.662;23.350;2024-01-27T02:03:14;5.83;;;2.77;;
16792;SDS011;8513;42.662;23.350;2024-01-27T02:05:39;5.70;;;2.73;;
16792;SDS011;8513;42.662;23.350;2024-01-27T02:08:05;6.80;;;2.43;;
16792;SDS011;8513;42.662;23.350;2024-01-27T02:10:31;4.00;;;2.20;;
16792;SDS011;8513;42.662;23.350;2024-01-27T02:13:18;5.47;;;2.30;;
16792;SDS011;8513;42.662;23.350;2024-01-27T02:15:45;6.23;;;2.50;;
16792;SDS011;8513;42.662;23.350;2024-01-27T02:18:10;6.20;;;2.33;;
16792;SDS011;8513;42.662;23.350;2024-01-27T02:20:36;6.70;;;2.70;;
16792;SDS011;8513;42.662;23.350;2024-01-27T02:23:02;4.37;;;2.27;;
16792;SDS011;8513;42.662;23.350;2024-01-27T02:25:29;4.50;;;2.10;;
16792;SDS011;8513;42.662;23.350;2024-01-27T02:27:58;4.50;;;2.10;;
16792;SDS011;8513;42.662;23.350;2024-01-27T02:30:24;3.70;;;2.20;;
16792;SDS011;8513;42.662;23.350;2024-01-27T02:32:50;4.50;;;2.10;;
16792;SDS011;8513;42.662;23.350;2024-01-27T02:35:16;6.30;;;2.53;;
16792;SDS011;8513;42.662;23.350;2024-01-27T02:37:42;5.13;;;2.17;;
16792;SDS011;8513;42.662;23.350;2024-01-27T02:40:08;4.00;;;2.30;;
16792;SDS011;8513;42.662;23.350;2024-01-27T02:42:35;5.03;;;2.50;;
16792;SDS011;8513;42.662;23.350;2024-01-27T02:45:01;8.17;;;2.63;;
16792;SDS011;8513;42.662;23.350;2024-01-27T02:47:27;5.40;;;2.10;;
16792;SDS011;8513;42.662;23.350;2024-01-27T02:49:52;2.87;;;2.03;;
16792;SDS011;8513;42.662;23.350;2024-01-27T02:52:18;4.10;;;2.30;;
16792;SDS011;8513;42.662;23.350;2024-01-27T02:54:43;6.23;;;2.10;;
16792;SDS011;8513;42.662;23.350;2024-01-27T02:57:09;5.33;;;2.47;;
16792;SDS011;8513;42.662;23.350;2024-01-27T02:59:34;4.17;;;2.83;;
16792;SDS011;8513;42.662;23.350;2024-01-27T03:02:00;7.50;;;2.70;;
16792;SDS011;8513;42.662;23.350;2024-01-27T03:04:26;5.80;;;3.03;;
16792;SDS011;8513;42.662;23.350;2024-01-27T03:06:51;5.83;;;3.00;;
16792;SDS011;8513;42.662;23.350;2024-01-27T03:09:16;8.17;;;3.50;;
16792;SDS011;8513;42.662;23.350;2024-01-27T03:11:43;8.30;;;3.63;;
16792;SDS011;8513;42.662;23.350;2024-01-27T03:14:08;7.23;;;4.77;;
16792;SDS011;8513;42.662;23.350;2024-01-27T03:16:35;7.20;;;4.23;;
16792;SDS011;8513;42.662;23.350;2024-01-27T03:19:01;7.97;;;4.10;;
16792;SDS011;8513;42.662;23.350;2024-01-27T03:21:27;7.13;;;3.73;;
16792;SDS011;8513;42.662;23.350;2024-01-27T03:23:52;5.80;;;2.77;;
16792;SDS011;8513;42.662;23.350;2024-01-27T03:26:18;6.47;;;2.10;;
16792;SDS011;8513;42.662;23.350;2024-01-27T03:28:43;3.93;;;1.60;;
16792;SDS011;8513;42.662;23.350;2024-01-27T03:31:08;3.20;;;1.90;;
16792;SDS011;8513;42.662;23.350;2024-01-27T03:33:34;5.50;;;1.70;;
16792;SDS011;8513;42.662;23.350;2024-01-27T03:35:59;4.23;;;2.00;;
16792;SDS011;8513;42.662;23.350;2024-01-27T03:38:25;2.83;;;1.40;;
16792;SDS011;8513;42.662;23.350;2024-01-27T03:40:50;3.27;;;1.40;;
16792;SDS011;8513;42.662;23.350;2024-01-27T03:43:16;4.00;;;1.60;;
16792;SDS011;8513;42.662;23.350;2024-01-27T03:45:41;4.20;;;1.70;;
16792;SDS011;8513;42.662;23.350;2024-01-27T03:48:06;5.03;;;1.80;;
16792;SDS011;8513;42.662;23.350;2024-01-27T03:50:32;3.10;;;1.60;;
16792;SDS011;8513;42.662;23.350;2024-01-27T03:52:58;4.40;;;1.63;;
16792;SDS011;8513;42.662;23.350;2024-01-27T03:55:23;2.20;;;1.50;;
16792;SDS011;8513;42.662;23.350;2024-01-27T03:57:49;3.33;;;1.60;;
16792;SDS011;8513;42.662;23.350;2024-01-27T04:00:14;3.90;;;1.63;;
16792;SDS011;8513;42.662;23.350;2024-01-27T04:02:40;2.67;;;1.20;;
16792;SDS011;8513;42.662;23.350;2024-01-27T04:05:06;3.37;;;1.63;;
16792;SDS011;8513;42.662;23.350;2024-01-27T04:07:31;2.87;;;1.83;;
16792;SDS011;8513;42.662;23.350;2024-01-27T04:09:57;2.63;;;1.60;;
16792;SDS011;8513;42.662;23.350;2024-01-27T04:12:22;4.13;;;1.90;;
16792;SDS011;8513;42.662;23.350;2024-01-27T04:14:48;4.30;;;1.70;;
16792;SDS011;8513;42.662;23.350;2024-01-27T04:17:13;4.27;;;1.93;;
16792;SDS011;8513;42.662;23.350;2024-01-27T04:19:38;4.00;;;2.00;;
16792;SDS011;8513;42.662;23.350;2024-01-27T04:22:04;2.73;;;1.80;;
16792;SDS011;8513;42.662;23.350;2024-01-27T04:24:29;3.57;;;1.90;;
16792;SDS011;8513;42.662;23.350;2024-01-27T04:26:55;2.57;;;1.70;;
16792;SDS011;8513;42.662;23.350;2024-01-27T04:29:20;4.67;;;1.73;;
16792;SDS011;8513;42.662;23.350;2024-01-27T04:31:46;2.53;;;1.53;;
16792;SDS011;8513;42.662;23.350;2024-01-27T04:34:11;5.50;;;1.80;;
16792;SDS011;8513;42.662;23.350;2024-01-27T04:36:36;4.70;;;1.93;;
16792;SDS011;8513;42.662;23.350;2024-01-27T04:39:02;4.43;;;1.90;;
16792;SDS011;8513;42.662;23.350;2024-01-27T04:41:29;4.37;;;1.97;;
16792;SDS011;8513;42.662;23.350;2024-01-27T04:43:54;4.13;;;1.70;;
16792;SDS011;8513;42.662;23.350;2024-01-27T04:46:21;4.23;;;2.23;;
16792;SDS011;8513;42.662;23.350;2024-01-27T04:48:47;3.63;;;1.97;;
16792;SDS011;8513;42.662;23.350;2024-01-27T04:51:13;4.13;;;1.70;;
16792;SDS011;8513;42.662;23.350;2024-01-27T04:53:38;5.63;;;2.10;;
16792;SDS011;8513;42.662;23.350;2024-01-27T04:56:04;3.07;;;1.93;;
16792;SDS011;8513;42.662;23.350;2024-01-27T04:58:33;6.43;;;2.17;;
16792;SDS011;8513;42.662;23.350;2024-01-27T05:00:59;3.20;;;1.70;;
16792;SDS011;8513;42.662;23.350;2024-01-27T05:03:24;5.57;;;1.70;;
16792;SDS011;8513;42.662;23.350;2024-01-27T05:05:49;2.53;;;1.60;;
16792;SDS011;8513;42.662;23.350;2024-01-27T05:08:15;3.07;;;1.70;;
16792;SDS011;8513;42.662;23.350;2024-01-27T05:10:40;3.17;;;1.70;;
16792;SDS011;8513;42.662;23.350;2024-01-27T05:13:06;2.40;;;1.63;;
16792;SDS011;8513;42.662;23.350;2024-01-27T05:15:31;2.90;;;1.77;;
16792;SDS011;8513;42.662;23.350;2024-01-27T05:17:57;3.90;;;1.90;;
16792;SDS011;8513;42.662;23.350;2024-01-27T05:20:22;3.37;;;2.00;;
16792;SDS011;8513;42.662;23.350;2024-01-27T05:22:47;4.07;;;1.90;;
16792;SDS011;8513;42.662;23.350;2024-01-27T05:25:13;4.40;;;1.80;;
16792;SDS011;8513;42.662;23.350;2024-01-27T05:27:38;5.03;;;1.90;;
16792;SDS011;8513;42.662;23.350;2024-01-27T05:30:05;3.63;;;1.73;;
16792;SDS011;8513;42.662;23.350;2024-01-27T05:32:31;2.87;;;1.80;;
16792;SDS011;8513;42.662;23.350;2024-01-27T05:34:57;2.80;;;2.30;;
16792;SDS011;8513;42.662;23.350;2024-01-27T05:37:22;3.17;;;2.00;;
16792;SDS011;8513;42.662;23.350;2024-01-27T05:39:48;2.47;;;1.87;;
16792;SDS011;8513;42.662;23.350;2024-01-27T05:42:13;2.57;;;2.00;;
16792;SDS011;8513;42.662;23.350;2024-01-27T05:44:39;4.80;;;2.33;;
16792;SDS011;8513;42.662;23.350;2024-01-27T05:47:06;5.03;;;2.23;;
16792;SDS011;8513;42.662;23.350;2024-01-27T05:49:31;4.10;;;2.70;;
16792;SDS011;8513;42.662;23.350;2024-01-27T05:51:57;3.20;;;2.53;;
16792;SDS011;8513;42.662;23.350;2024-01-27T05:54:23;4.37;;;2.33;;
16792;SDS011;8513;42.662;23.350;2024-01-27T05:56:49;4.30;;;2.60;;
16792;SDS011;8513;42.662;23.350;2024-01-27T05:59:15;3.70;;;2.47;;
16792;SDS011;8513;42.662;23.350;2024-01-27T06:01:40;2.60;;;2.10;;
16792;SDS011;8513;42.662;23.350;2024-01-27T06:04:06;3.43;;;2.33;;
16792;SDS011;8513;42.662;23.350;2024-01-27T06:06:32;4.53;;;2.57;;
16792;SDS011;8513;42.662;23.350;2024-01-27T06:08:57;3.83;;;2.53;;
16792;SDS011;8513;42.662;23.350;2024-01-27T06:11:26;4.37;;;3.07;;
16792;SDS011;8513;42.662;23.350;2024-01-27T06:13:51;4.80;;;3.07;;
16792;SDS011;8513;42.662;23.350;2024-01-27T06:16:20;3.50;;;2.63;;
16792;SDS011;8513;42.662;23.350;2024-01-27T06:18:45;4.93;;;3.00;;
16792;SDS011;8513;42.662;23.350;2024-01-27T06:21:11;4.60;;;3.53;;
16792;SDS011;8513;42.662;23.350;2024-01-27T06:23:36;5.33;;;3.47;;
16792;SDS011;8513;42.662;23.350;2024-01-27T06:26:08;4.03;;;3.50;;
16792;SDS011;8513;42.662;23.350;2024-01-27T06:28:34;8.93;;;4.37;;
16792;SDS011;8513;42.662;23.350;2024-01-27T06:31:01;5.33;;;4.13;;
16792;SDS011;8513;42.662;23.350;2024-01-27T06:33:27;9.67;;;4.00;;
16792;SDS011;8513;42.662;23.350;2024-01-27T06:35:53;5.80;;;4.30;;
16792;SDS011;8513;42.662;23.350;2024-01-27T06:38:19;6.07;;;4.43;;
16792;SDS011;8513;42.662;23.350;2024-01-27T06:40:44;5.20;;;3.40;;
16792;SDS011;8513;42.662;23.350;2024-01-27T06:43:11;4.67;;;2.23;;
16792;SDS011;8513;42.662;23.350;2024-01-27T06:45:38;4.53;;;1.73;;
16792;SDS011;8513;42.662;23.350;2024-01-27T06:48:04;1.43;;;1.30;;
16792;SDS011;8513;42.662;23.350;2024-01-27T06:50:30;2.07;;;1.30;;
16792;SDS011;8513;42.662;23.350;2024-01-27T06:52:56;2.40;;;1.17;;
16792;SDS011;8513;42.662;23.350;2024-01-27T06:55:21;2.23;;;1.00;;
16792;SDS011;8513;42.662;23.350;2024-01-27T06:57:47;1.87;;;1.10;;
16792;SDS011;8513;42.662;23.350;2024-01-27T07:00:13;1.50;;;1.00;;
16792;SDS011;8513;42.662;23.350;2024-01-27T07:02:39;2.77;;;1.10;;
16792;SDS011;8513;42.662;23.350;2024-01-27T07:05:06;2.43;;;1.30;;
16792;SDS011;8513;42.662;23.350;2024-01-27T07:07:32;1.13;;;0.90;;
16792;SDS011;8513;42.662;23.350;2024-01-27T07:09:58;2.10;;;1.00;;
16792;SDS011;8513;42.662;23.350;2024-01-27T07:12:23;2.43;;;1.40;;
16792;SDS011;8513;42.662;23.350;2024-01-27T07:14:49;2.33;;;1.10;;
16792;SDS011;8513;42.662;23.350;2024-01-27T07:17:14;3.77;;;1.43;;
16792;SDS011;8513;42.662;23.350;2024-01-27T07:19:40;2.07;;;1.27;;
16792;SDS011;8513;42.662;23.350;2024-01-27T07:22:05;1.43;;;1.07;;
16792;SDS011;8513;42.662;23.350;2024-01-27T07:24:31;2.37;;;1.20;;
16792;SDS011;8513;42.662;23.350;2024-01-27T07:26:57;1.90;;;0.97;;
16792;SDS011;8513;42.662;23.350;2024-01-27T07:29:25;1.00;;;0.90;;
16792;SDS011;8513;42.662;23.350;2024-01-27T07:31:51;2.53;;;1.30;;
16792;SDS011;8513;42.662;23.350;2024-01-27T07:34:16;1.73;;;1.20;;
16792;SDS011;8513;42.662;23.350;2024-01-27T07:36:42;1.43;;;1.10;;
16792;SDS011;8513;42.662;23.350;2024-01-27T07:39:09;1.83;;;1.30;;
16792;SDS011;8513;42.662;23.350;2024-01-27T07:41:34;1.40;;;1.20;;
16792;SDS011;8513;42.662;23.350;2024-01-27T07:44:10;2.60;;;1.47;;
16792;SDS011;8513;42.662;23.350;2024-01-27T07:46:40;2.60;;;1.60;;
16792;SDS011;8513;42.662;23.350;2024-01-27T07:49:07;1.77;;;1.67;;
16792;SDS011;8513;42.662;23.350;2024-01-27T07:51:33;4.37;;;2.03;;
16792;SDS011;8513;42.662;23.350;2024-01-27T07:53:59;1.90;;;1.50;;
16792;SDS011;8513;42.662;23.350;2024-01-27T07:56:25;3.77;;;1.70;;
16792;SDS011;8513;42.662;23.350;2024-01-27T07:58:51;2.20;;;1.70;;
16792;SDS011;8513;42.662;23.350;2024-01-27T08:01:17;1.87;;;1.63;;
16792;SDS011;8513;42.662;23.350;2024-01-27T08:03:44;2.27;;;1.70;;
16792;SDS011;8513;42.662;23.350;2024-01-27T08:06:16;1.73;;;1.57;;
16792;SDS011;8513;42.662;23.350;2024-01-27T08:08:48;2.27;;;1.80;;
16792;SDS011;8513;42.662;23.350;2024-01-27T08:11:17;3.90;;;2.00;;
16792;SDS011;8513;42.662;23.350;2024-01-27T08:13:42;2.77;;;2.00;;
16792;SDS011;8513;42.662;23.350;2024-01-27T08:16:08;3.73;;;1.80;;
16792;SDS011;8513;42.662;23.350;2024-01-27T08:18:37;3.23;;;2.10;;
16792;SDS011;8513;42.662;23.350;2024-01-27T08:21:07;3.10;;;2.27;;
16792;SDS011;8513;42.662;23.350;2024-01-27T08:23:33;1.97;;;1.83;;
16792;SDS011;8513;42.662;23.350;2024-01-27T08:25:59;3.47;;;2.00;;
16792;SDS011;8513;42.662;23.350;2024-01-27T08:28:24;2.90;;;1.93;;
16792;SDS011;8513;42.662;23.350;2024-01-27T08:30:50;3.80;;;2.07;;
16792;SDS011;8513;42.662;23.350;2024-01-27T08:33:15;3.97;;;2.40;;
16792;SDS011;8513;42.662;23.350;2024-01-27T08:35:41;2.77;;;2.07;;
16792;SDS011;8513;42.662;23.350;2024-01-27T08:38:06;3.50;;;1.97;;
16792;SDS011;8513;42.662;23.350;2024-01-27T08:40:33;5.03;;;2.00;;
16792;SDS011;8513;42.662;23.350;2024-01-27T08:42:59;2.70;;;2.00;;
16792;SDS011;8513;42.662;23.350;2024-01-27T08:45:24;2.90;;;1.93;;
16792;SDS011;8513;42.662;23.350;2024-01-27T08:47:51;2.83;;;1.60;;
16792;SDS011;8513;42.662;23.350;2024-01-27T08:50:16;1.97;;;1.70;;
16792;SDS011;8513;42.662;23.350;2024-01-27T08:52:42;2.40;;;1.70;;
16792;SDS011;8513;42.662;23.350;2024-01-27T08:55:07;2.63;;;1.90;;
16792;SDS011;8513;42.662;23.350;2024-01-27T08:57:33;5.10;;;1.70;;
16792;SDS011;8513;42.662;23.350;2024-01-27T08:59:59;2.10;;;1.70;;
16792;SDS011;8513;42.662;23.350;2024-01-27T09:02:24;2.70;;;1.60;;
16792;SDS011;8513;42.662;23.350;2024-01-27T09:04:49;2.20;;;1.67;;
16792;SDS011;8513;42.662;23.350;2024-01-27T09:07:15;2.63;;;1.50;;
16792;SDS011;8513;42.662;23.350;2024-01-27T09:09:41;3.23;;;1.70;;
16792;SDS011;8513;42.662;23.350;2024-01-27T09:12:06;1.67;;;1.57;;
16792;SDS011;8513;42.662;23.350;2024-01-27T09:14:32;3.83;;;1.77;;
16792;SDS011;8513;42.662;23.350;2024-01-27T09:17:00;2.27;;;1.50;;
16792;SDS011;8513;42.662;23.350;2024-01-27T09:19:27;2.03;;;1.73;;
16792;SDS011;8513;42.662;23.350;2024-01-27T09:21:53;1.50;;;1.40;;
16792;SDS011;8513;42.662;23.350;2024-01-27T09:24:18;4.37;;;1.90;;
16792;SDS011;8513;42.662;23.350;2024-01-27T09:26:43;1.63;;;1.43;;
16792;SDS011;8513;42.662;23.350;2024-01-27T09:29:09;3.60;;;1.47;;
16792;SDS011;8513;42.662;23.350;2024-01-27T09:31:34;1.60;;;1.50;;
16792;SDS011;8513;42.662;23.350;2024-01-27T09:34:00;4.70;;;1.47;;
16792;SDS011;8513;42.662;23.350;2024-01-27T09:36:26;1.33;;;1.23;;
16792;SDS011;8513;42.662;23.350;2024-01-27T09:38:53;1.67;;;1.30;;
16792;SDS011;8513;42.662;23.350;2024-01-27T09:41:20;2.13;;;1.27;;
16792;SDS011;8513;42.662;23.350;2024-01-27T09:43:46;1.43;;;1.33;;
16792;SDS011;8513;42.662;23.350;2024-01-27T09:46:15;1.80;;;1.33;;
16792;SDS011;8513;42.662;23.350;2024-01-27T09:48:42;2.67;;;1.50;;
16792;SDS011;8513;42.662;23.350;2024-01-27T09:51:08;3.37;;;1.50;;
16792;SDS011;8513;42.662;23.350;2024-01-27T09:53:35;1.70;;;1.30;;
16792;SDS011;8513;42.662;23.350;2024-01-27T09:56:01;3.57;;;1.60;;
16792;SDS011;8513;42.662;23.350;2024-01-27T09:58:29;4.33;;;1.60;;
16792;SDS011;8513;42.662;23.350;2024-01-27T10:00:59;1.90;;;1.63;;
16792;SDS011;8513;42.662;23.350;2024-01-27T10:03:25;1.13;;;1.03;;
16792;SDS011;8513;42.662;23.350;2024-01-27T10:05:53;1.43;;;1.27;;
16792;SDS011;8513;42.662;23.350;2024-01-27T10:08:20;3.03;;;1.70;;
16792;SDS011;8513;42.662;23.350;2024-01-27T10:10:47;2.30;;;1.40;;
16792;SDS011;8513;42.662;23.350;2024-01-27T10:13:13;3.07;;;1.17;;
16792;SDS011;8513;42.662;23.350;2024-01-27T10:15:42;2.27;;;1.20;;
16792;SDS011;8513;42.662;23.350;2024-01-27T10:18:08;1.87;;;1.33;;
16792;SDS011;8513;42.662;23.350;2024-01-27T10:20:34;2.33;;;1.43;;
16792;SDS011;8513;42.662;23.350;2024-01-27T10:22:59;1.20;;;1.10;;
16792;SDS011;8513;42.662;23.350;2024-01-27T10:25:39;2.03;;;1.10;;
16792;SDS011;8513;42.662;23.350;2024-01-27T10:28:06;1.57;;;1.23;;
16792;SDS011;8513;42.662;23.350;2024-01-27T10:30:33;1.83;;;1.30;;
16792;SDS011;8513;42.662;23.350;2024-01-27T10:32:59;2.10;;;1.60;;
16792;SDS011;8513;42.662;23.350;2024-01-27T10:35:25;1.30;;;1.20;;
16792;SDS011;8513;42.662;23.350;2024-01-27T10:37:53;2.73;;;1.50;;
16792;SDS011;8513;42.662;23.350;2024-01-27T10:40:20;2.90;;;1.27;;
16792;SDS011;8513;42.662;23.350;2024-01-27T10:42:46;2.07;;;1.57;;
16792;SDS011;8513;42.662;23.350;2024-01-27T10:45:11;1.73;;;1.20;;
16792;SDS011;8513;42.662;23.350;2024-01-27T10:47:38;2.57;;;1.10;;
16792;SDS011;8513;42.662;23.350;2024-01-27T10:50:07;1.53;;;1.37;;
16792;SDS011;8513;42.662;23.350;2024-01-27T10:52:39;1.67;;;1.20;;
16792;SDS011;8513;42.662;23.350;2024-01-27T10:55:09;3.20;;;1.27;;
16792;SDS011;8513;42.662;23.350;2024-01-27T10:57:36;1.20;;;1.10;;
16792;SDS011;8513;42.662;23.350;2024-01-27T11:00:05;1.77;;;1.40;;
16792;SDS011;8513;42.662;23.350;2024-01-27T11:02:32;2.60;;;1.20;;
16792;SDS011;8513;42.662;23.350;2024-01-27T11:05:00;1.77;;;1.43;;
16792;SDS011;8513;42.662;23.350;2024-01-27T11:07:28;1.40;;;1.27;;
16792;SDS011;8513;42.662;23.350;2024-01-27T11:09:57;1.30;;;1.10;;
16792;SDS011;8513;42.662;23.350;2024-01-27T11:12:22;2.80;;;1.60;;
16792;SDS011;8513;42.662;23.350;2024-01-27T11:14:49;3.77;;;1.40;;
16792;SDS011;8513;42.662;23.350;2024-01-27T11:17:16;1.67;;;1.37;;
16792;SDS011;8513;42.662;23.350;2024-01-27T11:19:42;1.70;;;1.60;;
16792;SDS011;8513;42.662;23.350;2024-01-27T11:22:23;1.53;;;1.43;;
16792;SDS011;8513;42.662;23.350;2024-01-27T11:24:51;1.90;;;1.30;;
16792;SDS011;8513;42.662;23.350;2024-01-27T11:27:16;1.80;;;1.50;;
16792;SDS011;8513;42.662;23.350;2024-01-27T11:29:51;1.90;;;1.80;;
16792;SDS011;8513;42.662;23.350;2024-01-27T11:32:16;2.23;;;1.70;;
16792;SDS011;8513;42.662;23.350;2024-01-27T11:34:43;3.00;;;1.83;;
16792;SDS011;8513;42.662;23.350;2024-01-27T11:37:10;2.53;;;1.60;;
16792;SDS011;8513;42.662;23.350;2024-01-27T11:39:39;2.77;;;2.10;;
16792;SDS011;8513;42.662;23.350;2024-01-27T11:42:08;1.90;;;1.77;;
16792;SDS011;8513;42.662;23.350;2024-01-27T11:44:38;2.83;;;1.90;;
16792;SDS011;8513;42.662;23.350;2024-01-27T11:47:04;3.07;;;2.07;;
16792;SDS011;8513;42.662;23.350;2024-01-27T11:49:30;1.67;;;1.50;;
16792;SDS011;8513;42.662;23.350;2024-01-27T11:51:56;3.40;;;1.80;;
16792;SDS011;8513;42.662;23.350;2024-01-27T11:54:21;2.20;;;1.87;;
16792;SDS011;8513;42.662;23.350;2024-01-27T11:56:47;2.27;;;1.87;;
16792;SDS011;8513;42.662;23.350;2024-01-27T11:59:12;1.87;;;1.70;;
16792;SDS011;8513;42.662;23.350;2024-01-27T12:01:38;2.43;;;1.70;;
16792;SDS011;8513;42.662;23.350;2024-01-27T12:04:06;2.13;;;1.70;;
16792;SDS011;8513;42.662;23.350;2024-01-27T12:06:32;3.10;;;1.97;;
16792;SDS011;8513;42.662;23.350;2024-01-27T12:08:58;1.90;;;1.80;;
16792;SDS011;8513;42.662;23.350;2024-01-27T12:11:24;2.17;;;1.80;;
16792;SDS011;8513;42.662;23.350;2024-01-27T12:13:50;2.00;;;1.60;;
16792;SDS011;8513;42.662;23.350;2024-01-27T12:16:17;1.70;;;1.60;;
16792;SDS011;8513;42.662;23.350;2024-01-27T12:18:43;2.10;;;1.90;;
16792;SDS011;8513;42.662;23.350;2024-01-27T12:21:11;2.23;;;1.97;;
16792;SDS011;8513;42.662;23.350;2024-01-27T12:23:48;3.13;;;1.50;;
16792;SDS011;8513;42.662;23.350;2024-01-27T12:26:19;3.40;;;2.03;;
16792;SDS011;8513;42.662;23.350;2024-01-27T12:28:46;4.40;;;1.70;;
16792;SDS011;8513;42.662;23.350;2024-01-27T12:31:12;2.03;;;1.57;;
16792;SDS011;8513;42.662;23.350;2024-01-27T12:33:39;2.47;;;1.70;;
16792;SDS011;8513;42.662;23.350;2024-01-27T12:36:07;2.10;;;1.70;;
16792;SDS011;8513;42.662;23.350;2024-01-27T12:38:33;3.00;;;1.70;;
16792;SDS011;8513;42.662;23.350;2024-01-27T12:40:58;2.50;;;1.40;;
16792;SDS011;8513;42.662;23.350;2024-01-27T12:43:24;2.17;;;1.50;;
16792;SDS011;8513;42.662;23.350;2024-01-27T12:45:49;2.63;;;1.50;;
16792;SDS011;8513;42.662;23.350;2024-01-27T12:48:14;1.87;;;1.60;;
16792;SDS011;8513;42.662;23.350;2024-01-27T12:50:40;1.83;;;1.53;;
16792;SDS011;8513;42.662;23.350;2024-01-27T12:53:05;3.47;;;1.80;;
16792;SDS011;8513;42.662;23.350;2024-01-27T12:55:31;3.07;;;1.60;;
16792;SDS011;8513;42.662;23.350;2024-01-27T12:57:56;1.77;;;1.57;;
16792;SDS011;8513;42.662;23.350;2024-01-27T13:00:23;1.73;;;1.50;;
16792;SDS011;8513;42.662;23.350;2024-01-27T13:02:48;4.27;;;1.63;;
16792;SDS011;8513;42.662;23.350;2024-01-27T13:05:13;2.63;;;1.50;;
16792;SDS011;8513;42.662;23.350;2024-01-27T13:07:39;1.83;;;1.53;;
16792;SDS011;8513;42.662;23.350;2024-01-27T13:10:04;1.43;;;1.30;;
16792;SDS011;8513;42.662;23.350;2024-01-27T13:12:30;3.73;;;1.47;;
16792;SDS011;8513;42.662;23.350;2024-01-27T13:14:56;2.57;;;1.40;;
16792;SDS011;8513;42.662;23.350;2024-01-27T13:17:21;3.50;;;1.57;;
16792;SDS011;8513;42.662;23.350;2024-01-27T13:19:47;2.47;;;1.33;;
16792;SDS011;8513;42.662;23.350;2024-01-27T13:22:12;3.20;;;1.63;;
16792;SDS011;8513;42.662;23.350;2024-01-27T13:24:38;2.23;;;1.40;;
16792;SDS011;8513;42.662;23.350;2024-01-27T13:27:03;1.73;;;1.30;;
16792;SDS011;8513;42.662;23.350;2024-01-27T13:29:30;2.77;;;1.20;;
16792;SDS011;8513;42.662;23.350;2024-01-27T13:31:57;2.17;;;1.30;;
16792;SDS011;8513;42.662;23.350;2024-01-27T13:34:26;1.80;;;1.30;;
16792;SDS011;8513;42.662;23.350;2024-01-27T13:36:53;2.53;;;1.50;;
16792;SDS011;8513;42.662;23.350;2024-01-27T13:39:19;2.80;;;1.47;;
16792;SDS011;8513;42.662;23.350;2024-01-27T13:41:44;1.90;;;1.00;;
16792;SDS011;8513;42.662;23.350;2024-01-27T13:44:10;1.77;;;1.20;;
16792;SDS011;8513;42.662;23.350;2024-01-27T13:46:35;2.70;;;1.60;;
16792;SDS011;8513;42.662;23.350;2024-01-27T13:49:00;1.93;;;1.10;;
16792;SDS011;8513;42.662;23.350;2024-01-27T13:51:26;2.03;;;1.50;;
16792;SDS011;8513;42.662;23.350;2024-01-27T13:53:51;4.10;;;1.37;;
16792;SDS011;8513;42.662;23.350;2024-01-27T13:56:17;2.77;;;1.40;;
16792;SDS011;8513;42.662;23.350;2024-01-27T13:58:42;3.20;;;1.20;;
16792;SDS011;8513;42.662;23.350;2024-01-27T14:01:08;2.03;;;1.30;;
16792;SDS011;8513;42.662;23.350;2024-01-27T14:03:33;3.17;;;1.23;;
16792;SDS011;8513;42.662;23.350;2024-01-27T14:05:59;2.07;;;1.40;;
16792;SDS011;8513;42.662;23.350;2024-01-27T14:08:24;1.60;;;1.07;;
16792;SDS011;8513;42.662;23.350;2024-01-27T14:10:50;3.37;;;1.50;;
16792;SDS011;8513;42.662;23.350;2024-01-27T14:13:17;2.30;;;1.17;;
16792;SDS011;8513;42.662;23.350;2024-01-27T14:15:43;3.37;;;1.50;;
16792;SDS011;8513;42.662;23.350;2024-01-27T14:18:08;1.80;;;1.30;;
16792;SDS011;8513;42.662;23.350;2024-01-27T14:20:34;1.63;;;1.30;;
16792;SDS011;8513;42.662;23.350;2024-01-27T14:23:02;1.80;;;1.30;;
16792;SDS011;8513;42.662;23.350;2024-01-27T14:25:28;3.23;;;1.30;;
16792;SDS011;8513;42.662;23.350;2024-01-27T14:27:54;4.37;;;1.70;;
16792;SDS011;8513;42.662;23.350;2024-01-27T14:30:20;2.20;;;1.33;;
16792;SDS011;8513;42.662;23.350;2024-01-27T14:32:45;2.83;;;1.40;;
16792;SDS011;8513;42.662;23.350;2024-01-27T14:35:11;1.40;;;1.27;;
16792;SDS011;8513;42.662;23.350;2024-01-27T14:37:36;2.10;;;1.30;;
16792;SDS011;8513;42.662;23.350;2024-01-27T14:40:03;1.73;;;1.30;;
16792;SDS011;8513;42.662;23.350;2024-01-27T14:42:29;1.50;;;1.20;;